Time;durP1;ratioP1;P1;durP2;ratioP2;P2;SDS_P1;SDS_P2;PMS_P1;PMS_P2;Temp;Humidity;BMP_temperature;BMP_pressure;BME280_temperature;BME280_humidity;BME280_pressure;Samples;Min_cycle;Max_cycle;Signal;HPM_P1;HPM_P2
2022/10/22 00:00:05;;;;;;;32.67;15.50;;;11.80;99.90;;;;;;4997737;28;20060;-72
2022/10/22 00:02:31;;;;;;;29.15;16.20;;;11.80;99.90;;;;;;5015404;28;20469;-70
2022/10/22 00:04:56;;;;;;;32.88;15.68;;;11.80;99.90;;;;;;4997953;28;20088;-71
2022/10/22 00:07:23;;;;;;;25.20;15.07;;;11.70;99.90;;;;;;5014871;28;20455;-72
2022/10/22 00:09:48;;;;;;;21.67;13.90;;;11.70;99.90;;;;;;5015102;28;20052;-71
2022/10/22 00:12:15;;;;;;;27.08;15.50;;;11.70;99.90;;;;;;4997958;28;20050;-71
2022/10/22 00:14:41;;;;;;;20.20;13.48;;;11.70;99.90;;;;;;5014724;28;20462;-72
2022/10/22 00:17:07;;;;;;;29.42;15.82;;;11.70;99.90;;;;;;5014747;28;20057;-71
2022/10/22 00:19:33;;;;;;;31.00;15.43;;;11.80;99.90;;;;;;5014827;28;20045;-72
2022/10/22 00:21:58;;;;;;;34.60;16.13;;;11.70;99.90;;;;;;5015490;28;20038;-71
2022/10/22 00:24:24;;;;;;;24.67;15.10;;;11.60;99.90;;;;;;5014721;28;20482;-71
2022/10/22 00:26:50;;;;;;;38.75;17.63;;;11.70;99.90;;;;;;5014782;28;20046;-72
2022/10/22 00:29:18;;;;;;;33.05;16.42;;;11.70;99.90;;;;;;5014624;28;20550;-71
2022/10/22 00:31:48;;;;;;;30.50;15.73;;;11.60;99.90;;;;;;4998407;28;20050;-71
2022/10/22 00:34:15;;;;;;;26.30;14.50;;;11.60;99.90;;;;;;5015159;28;20050;-71
2022/10/22 00:36:41;;;;;;;28.75;15.70;;;11.60;99.90;;;;;;5014639;28;20038;-71
2022/10/22 00:39:07;;;;;;;36.13;17.13;;;11.50;99.90;;;;;;5014684;28;20092;-71
2022/10/22 00:41:32;;;;;;;25.00;14.68;;;11.50;99.90;;;;;;5014730;28;20046;-70
2022/10/22 00:44:03;;;;;;;31.75;16.30;;;11.40;99.90;;;;;;4997236;28;20132;-71
2022/10/22 00:46:29;;;;;;;32.92;16.17;;;11.40;99.90;;;;;;4997498;28;20121;-72
2022/10/22 00:49:01;;;;;;;26.90;15.60;;;11.40;99.90;;;;;;5014561;28;20527;-72
2022/10/22 00:51:32;;;;;;;39.70;17.08;;;11.40;99.90;;;;;;5014294;28;20046;-71
2022/10/22 00:54:03;;;;;;;24.88;13.55;;;11.30;99.90;;;;;;5014969;28;20069;-71
2022/10/22 00:56:28;;;;;;;29.90;16.55;;;11.30;99.90;;;;;;5018083;28;20411;-71
2022/10/22 00:58:59;;;;;;;27.00;14.57;;;11.30;99.90;;;;;;5001708;28;20046;-72
2022/10/22 01:01:30;;;;;;;31.13;15.57;;;11.30;99.90;;;;;;5018013;28;20129;-71
2022/10/22 01:03:56;;;;;;;23.38;14.40;;;11.30;99.90;;;;;;5018552;28;20096;-72
2022/10/22 01:06:30;;;;;;;34.42;15.38;;;11.30;99.90;;;;;;5017937;28;20081;-71
2022/10/22 01:08:55;;;;;;;31.10;16.73;;;11.20;99.90;;;;;;5146673;23;20079;-72
2022/10/22 01:11:29;;;;;;;32.85;16.02;;;11.20;99.90;;;;;;5057375;28;20135;-71
2022/10/22 01:14:06;;;;;;;26.35;15.57;;;11.20;99.90;;;;;;5057635;28;20057;-71
2022/10/22 01:17:08;;;;;;;25.48;15.88;;;11.20;99.90;;;;;;5057410;28;20067;-71
2022/10/22 01:19:50;;;;;;;34.28;15.73;;;11.20;99.90;;;;;;4976897;28;20130;-72
2022/10/22 01:22:19;;;;;;;30.35;16.80;;;11.20;99.90;;;;;;5050443;28;20052;-72
2022/10/22 01:25:09;;;;;;;27.23;14.25;;;11.40;99.90;;;;;;5040056;28;20045;-71
2022/10/22 01:28:03;;;;;;;29.65;14.57;;;11.20;99.90;;;;;;5039677;28;20037;-71
2022/10/22 01:30:29;;;;;;;28.85;14.02;;;11.20;99.90;;;;;;5057694;28;20037;-71
2022/10/22 01:33:01;;;;;;;29.60;16.20;;;11.20;99.90;;;;;;5057551;28;20053;-71
2022/10/22 01:35:35;;;;;;;34.63;16.80;;;11.20;99.90;;;;;;5057113;28;20041;-71
2022/10/22 01:38:05;;;;;;;30.55;15.23;;;11.20;99.90;;;;;;5057153;28;20409;-71
2022/10/22 01:40:32;;;;;;;30.15;15.68;;;11.20;99.90;;;;;;5039336;28;20136;-72
2022/10/22 01:43:03;;;;;;;31.52;16.98;;;11.20;99.90;;;;;;5057641;28;20033;-72
2022/10/22 01:45:33;;;;;;;35.40;17.52;;;11.30;99.90;;;;;;5057256;28;20064;-71
2022/10/22 01:48:19;;;;;;;34.55;17.13;;;11.30;99.90;;;;;;5057160;28;20052;-71
2022/10/22 01:50:54;;;;;;;33.80;17.83;;;11.30;99.90;;;;;;5056834;28;20049;-72
2022/10/22 01:53:38;;;;;;;33.30;15.23;;;11.30;99.90;;;;;;5057083;28;20366;-71
2022/10/22 01:56:13;;;;;;;;;;;11.30;99.90;;;;;;5057387;28;20124;-70
2022/10/22 01:58:54;;;;;;;27.85;16.08;;;11.30;99.90;;;;;;5056954;28;19974;-70
2022/10/22 02:01:45;;;;;;;32.38;17.50;;;11.30;99.90;;;;;;5056631;28;20123;-70
2022/10/22 02:04:27;;;;;;;27.15;14.85;;;11.30;99.90;;;;;;5015873;28;20053;-71
2022/10/22 02:06:58;;;;;;;25.00;14.75;;;11.30;99.90;;;;;;5056090;28;20045;-71
2022/10/22 02:09:26;;;;;;;30.77;15.50;;;11.30;99.90;;;;;;5038967;28;20068;-70
2022/10/22 02:11:53;;;;;;;25.52;14.50;;;11.30;99.90;;;;;;5039606;28;20081;-70
2022/10/22 02:14:19;;;;;;;31.42;16.83;;;11.30;99.90;;;;;;5056547;28;20377;-71
2022/10/22 02:16:48;;;;;;;33.75;18.33;;;11.30;99.90;;;;;;5056441;28;20049;-71
2022/10/22 02:19:34;;;;;;;37.97;19.50;;;11.30;99.90;;;;;;5056557;28;20060;-70
2022/10/22 02:22:00;;;;;;;36.28;18.17;;;11.40;99.90;;;;;;5039474;28;20053;-71
2022/10/22 02:24:26;;;;;;;30.83;16.63;;;11.50;99.90;;;;;;5056676;28;20051;-72
2022/10/22 02:26:57;;;;;;;33.90;17.08;;;11.30;99.90;;;;;;5039526;28;20045;-70
2022/10/22 02:29:54;;;;;;;35.85;17.73;;;11.30;99.90;;;;;;5056134;28;20052;-71
2022/10/22 02:32:25;;;;;;;31.83;17.85;;;11.30;99.90;;;;;;5005206;28;20101;-72
2022/10/22 02:34:51;;;;;;;35.15;17.20;;;11.30;99.90;;;;;;5056141;28;20053;-69
2022/10/22 02:37:18;;;;;;;37.15;19.23;;;11.30;99.90;;;;;;5055950;28;20124;-71
2022/10/22 02:39:44;;;;;;;33.53;19.45;;;11.30;99.90;;;;;;5039142;28;20103;-71
2022/10/22 02:42:11;;;;;;;46.00;20.08;;;11.30;99.90;;;;;;5038803;28;20041;-71
2022/10/22 02:44:37;;;;;;;39.88;21.05;;;11.40;99.90;;;;;;5055847;28;20036;-71
2022/10/22 02:47:03;;;;;;;40.25;19.45;;;11.40;99.90;;;;;;5056290;28;20045;-71
2022/10/22 02:49:28;;;;;;;35.95;17.40;;;11.40;99.90;;;;;;5055678;28;20053;-71
2022/10/22 02:51:54;;;;;;;44.38;21.17;;;11.40;99.90;;;;;;5055738;28;20040;-72
2022/10/22 02:54:19;;;;;;;30.50;16.73;;;11.40;99.90;;;;;;5055889;28;20037;-74
2022/10/22 02:56:45;;;;;;;34.85;18.38;;;11.30;99.90;;;;;;5038620;28;20091;-71
2022/10/22 02:59:11;;;;;;;33.35;18.85;;;11.30;99.90;;;;;;5056203;28;20345;-71
2022/10/22 03:01:36;;;;;;;47.35;20.40;;;11.30;99.90;;;;;;5055186;28;20049;-70
2022/10/22 03:04:02;;;;;;;35.72;20.08;;;11.30;99.90;;;;;;5055564;28;20388;-71
2022/10/22 03:06:28;;;;;;;39.78;21.85;;;11.40;99.90;;;;;;5056039;28;20048;-71
2022/10/22 03:08:53;;;;;;;52.47;22.63;;;11.40;99.90;;;;;;5055217;28;20060;-71
2022/10/22 03:11:19;;;;;;;31.63;17.92;;;11.40;99.90;;;;;;5055872;28;20045;-70
2022/10/22 03:13:44;;;;;;;31.33;18.02;;;11.30;99.90;;;;;;5055342;28;20044;-71
2022/10/22 03:16:10;;;;;;;38.22;19.55;;;11.30;99.90;;;;;;5055222;28;20517;-72
2022/10/22 03:18:36;;;;;;;39.25;20.67;;;11.30;99.90;;;;;;5054497;28;20040;-71
2022/10/22 03:21:05;;;;;;;31.48;18.85;;;11.30;99.90;;;;;;5055316;28;20454;-71
2022/10/22 03:23:31;;;;;;;39.33;20.35;;;11.30;99.90;;;;;;5055235;28;20061;-70
2022/10/22 03:25:58;;;;;;;33.00;19.95;;;11.30;99.90;;;;;;5055094;28;20041;-71
2022/10/22 03:28:25;;;;;;;38.42;20.60;;;11.40;99.90;;;;;;5055095;28;20131;-71
2022/10/22 03:30:51;;;;;;;35.25;20.05;;;11.40;99.90;;;;;;5054989;28;20049;-71
2022/10/22 03:33:16;;;;;;;32.00;18.08;;;11.40;99.90;;;;;;5038101;28;20041;-72
2022/10/22 03:35:45;;;;;;;41.78;20.83;;;11.30;99.90;;;;;;5020884;28;20053;-71
2022/10/22 03:38:11;;;;;;;46.47;20.77;;;11.30;99.90;;;;;;5055218;28;20041;-71
2022/10/22 03:40:37;;;;;;;36.38;19.73;;;11.30;99.90;;;;;;5054954;28;20450;-71
2022/10/22 03:43:02;;;;;;;37.05;19.38;;;11.30;99.90;;;;;;5055395;28;20044;-71
2022/10/22 03:45:28;;;;;;;41.20;19.20;;;11.30;99.90;;;;;;5055284;28;20037;-70
2022/10/22 03:47:54;;;;;;;45.15;21.35;;;11.30;99.90;;;;;;5036981;28;20103;-71
2022/10/22 03:50:19;;;;;;;34.38;17.17;;;11.20;99.90;;;;;;5054831;28;20106;-70
2022/10/22 03:52:45;;;;;;;27.23;18.10;;;11.20;99.90;;;;;;5054941;28;20049;-70
2022/10/22 03:55:10;;;;;;;40.60;21.83;;;11.20;99.90;;;;;;5054601;28;20037;-71
2022/10/22 03:57:36;;;;;;;46.28;22.25;;;11.20;99.90;;;;;;5054820;28;20053;-70
2022/10/22 04:00:04;;;;;;;35.03;18.48;;;11.30;99.90;;;;;;5054621;28;20037;-70
2022/10/22 04:02:29;;;;;;;54.75;21.65;;;11.20;99.90;;;;;;5037366;28;20136;-71
2022/10/22 04:04:55;;;;;;;34.80;20.60;;;11.20;99.90;;;;;;5054691;28;20123;-70
2022/10/22 04:07:20;;;;;;;37.72;20.33;;;11.30;99.90;;;;;;5054691;28;20052;-71
2022/10/22 04:09:46;;;;;;;31.20;18.42;;;11.30;99.90;;;;;;5054558;28;20052;-71
2022/10/22 04:12:11;;;;;;;35.17;19.10;;;11.30;99.90;;;;;;5037063;28;20110;-71
2022/10/22 04:14:37;;;;;;;50.25;23.73;;;11.20;99.90;;;;;;5054487;28;20041;-70
2022/10/22 04:17:03;;;;;;;42.88;21.50;;;11.30;99.90;;;;;;5037404;28;20052;-70
2022/10/22 04:19:28;;;;;;;42.00;21.65;;;11.30;99.90;;;;;;5054811;28;20428;-70
2022/10/22 04:21:57;;;;;;;35.95;20.05;;;11.20;99.90;;;;;;5055077;28;20052;-70
2022/10/22 04:24:23;;;;;;;40.40;20.60;;;11.20;99.90;;;;;;5037681;28;20465;-70
2022/10/22 04:26:49;;;;;;;32.20;19.02;;;11.20;99.90;;;;;;5054923;28;20102;-71
2022/10/22 04:29:14;;;;;;;34.13;21.15;;;11.20;99.90;;;;;;5038077;28;20045;-70
2022/10/22 04:31:40;;;;;;;39.63;20.50;;;11.20;99.90;;;;;;5059060;28;20132;-71
2022/10/22 04:34:05;;;;;;;33.55;19.70;;;11.20;99.90;;;;;;5058561;28;20485;-70
2022/10/22 04:36:31;;;;;;;42.88;24.60;;;11.20;99.90;;;;;;5058351;28;20049;-70
2022/10/22 04:38:59;;;;;;;54.90;25.38;;;11.20;99.90;;;;;;5058361;28;20056;-71
2022/10/22 04:41:28;;;;;;;54.33;26.40;;;11.20;99.90;;;;;;5058248;28;20401;-70
2022/10/22 04:43:55;;;;;;;39.60;22.20;;;11.20;99.90;;;;;;5040888;28;20450;-72
2022/10/22 04:46:21;;;;;;;60.42;27.95;;;11.20;99.90;;;;;;5058691;28;20045;-71
2022/10/22 04:48:47;;;;;;;42.20;24.70;;;11.30;99.90;;;;;;5058529;28;20056;-70
2022/10/22 04:51:15;;;;;;;49.50;23.45;;;11.20;99.90;;;;;;5040739;28;20048;-70
2022/10/22 04:53:41;;;;;;;59.30;27.83;;;11.20;99.90;;;;;;5058084;28;20075;-71
2022/10/22 04:56:15;;;;;;;42.67;25.75;;;11.30;99.90;;;;;;5057707;28;20045;-70
2022/10/22 04:58:42;;;;;;;40.67;24.17;;;11.30;99.90;;;;;;5057929;28;20060;-71
2022/10/22 05:01:14;;;;;;;46.80;25.38;;;11.30;99.90;;;;;;5057880;28;20040;-70
2022/10/22 05:03:41;;;;;;;51.35;25.67;;;11.30;99.90;;;;;;5057874;28;20084;-71
2022/10/22 05:06:07;;;;;;;39.28;23.38;;;11.30;99.90;;;;;;5041171;28;20091;-71
2022/10/22 05:08:33;;;;;;;47.58;23.98;;;11.40;99.90;;;;;;5058296;28;20049;-71
2022/10/22 05:10:59;;;;;;;50.53;22.27;;;11.40;99.90;;;;;;5058094;28;20366;-71
2022/10/22 05:13:24;;;;;;;44.33;26.25;;;11.40;99.90;;;;;;5057537;28;20438;-70
2022/10/22 05:15:50;;;;;;;47.17;25.10;;;11.50;99.90;;;;;;5057952;28;20041;-71
2022/10/22 05:18:15;;;;;;;45.67;25.38;;;11.40;99.90;;;;;;5040192;28;20438;-70
2022/10/22 05:20:41;;;;;;;44.75;24.50;;;11.50;99.90;;;;;;5057584;28;20049;-70
2022/10/22 05:23:07;;;;;;;42.30;23.35;;;11.60;99.90;;;;;;5057539;28;20049;-71
2022/10/22 05:25:38;;;;;;;40.42;22.73;;;11.40;99.90;;;;;;5057272;28;20469;-70
2022/10/22 05:28:04;;;;;;;41.92;22.88;;;11.40;99.90;;;;;;5057067;28;20462;-70
2022/10/22 05:30:30;;;;;;;44.92;25.20;;;11.30;99.90;;;;;;5057229;28;20094;-71
2022/10/22 05:32:55;;;;;;;47.58;24.25;;;11.40;99.90;;;;;;5057563;28;20377;-73
2022/10/22 05:35:21;;;;;;;46.22;23.02;;;11.30;99.90;;;;;;5040144;28;20056;-70
2022/10/22 05:37:46;;;;;;;47.55;24.33;;;11.30;99.90;;;;;;5039773;28;20056;-71
2022/10/22 05:40:12;;;;;;;47.78;24.90;;;11.30;99.90;;;;;;5056529;28;20045;-71
2022/10/22 05:42:37;;;;;;;43.45;24.20;;;11.30;99.90;;;;;;5040217;28;20049;-70
2022/10/22 05:45:04;;;;;;;41.95;24.20;;;11.30;99.90;;;;;;5057801;28;20083;-72
2022/10/22 05:47:29;;;;;;;55.38;25.45;;;11.30;99.90;;;;;;5056835;28;20045;-71
2022/10/22 05:49:56;;;;;;;37.50;22.58;;;11.30;99.90;;;;;;5039762;28;20049;-70
2022/10/22 05:52:22;;;;;;;37.92;23.42;;;11.30;99.90;;;;;;5057073;28;20072;-70
2022/10/22 05:54:48;;;;;;;41.25;23.88;;;11.40;99.90;;;;;;5039497;28;20114;-71
2022/10/22 05:57:13;;;;;;;49.72;25.27;;;11.40;99.90;;;;;;5039545;28;20049;-70
2022/10/22 05:59:39;;;;;;;49.67;22.85;;;11.40;99.90;;;;;;5056724;28;20047;-71
2022/10/22 06:02:05;;;;;;;40.45;24.25;;;11.40;99.90;;;;;;5056755;28;20076;-71
2022/10/22 06:04:31;;;;;;;49.63;25.48;;;11.40;99.90;;;;;;5056745;28;20049;-70
2022/10/22 06:06:57;;;;;;;42.90;23.95;;;11.40;99.90;;;;;;5056599;28;20049;-72
2022/10/22 06:09:26;;;;;;;41.92;22.33;;;11.40;99.90;;;;;;5039014;28;20076;-71
2022/10/22 06:11:52;;;;;;;55.25;26.13;;;11.40;99.90;;;;;;5057348;28;20045;-70
2022/10/22 06:14:19;;;;;;;44.22;23.25;;;11.50;99.90;;;;;;5038709;28;20078;-71
2022/10/22 06:16:44;;;;;;;48.75;25.50;;;11.50;99.90;;;;;;5039572;28;20064;-71
2022/10/22 06:19:15;;;;;;;34.60;20.83;;;11.50;99.90;;;;;;5039201;28;20056;-71
2022/10/22 06:21:41;;;;;;;44.08;22.63;;;11.50;99.90;;;;;;5056743;28;20037;-71
2022/10/22 06:24:08;;;;;;;32.42;20.58;;;11.60;99.90;;;;;;5056251;28;20041;-72
2022/10/22 06:26:33;;;;;;;38.33;21.80;;;11.60;99.90;;;;;;5038907;28;20045;-71
2022/10/22 06:28:59;;;;;;;44.20;23.20;;;11.60;99.90;;;;;;5056050;28;20044;-71
2022/10/22 06:31:26;;;;;;;48.72;23.67;;;11.60;99.90;;;;;;5056656;28;20045;-71
2022/10/22 06:33:52;;;;;;;42.70;21.80;;;11.70;99.90;;;;;;5056738;28;20354;-70
2022/10/22 06:36:19;;;;;;;35.92;21.58;;;11.70;99.90;;;;;;5056485;28;20045;-70
2022/10/22 06:38:45;;;;;;;47.42;22.15;;;12.00;99.90;;;;;;5056433;28;20049;-71
2022/10/22 06:41:14;;;;;;;32.55;20.95;;;11.80;99.90;;;;;;5056336;28;20061;-71
2022/10/22 06:43:44;;;;;;;43.45;22.10;;;11.80;99.90;;;;;;5038788;28;20041;-71
2022/10/22 06:46:10;;;;;;;39.75;20.27;;;11.80;99.90;;;;;;5055840;28;20049;-72
2022/10/22 06:48:37;;;;;;;38.00;21.35;;;11.80;99.90;;;;;;5055596;28;20041;-70
2022/10/22 06:51:05;;;;;;;30.77;20.15;;;11.80;99.90;;;;;;5055808;28;20099;-71
2022/10/22 06:53:34;;;;;;;39.90;21.58;;;11.80;99.90;;;;;;5055467;28;20053;-71
2022/10/22 06:56:07;;;;;;;41.92;19.20;;;11.90;99.90;;;;;;5055615;28;20114;-70
2022/10/22 06:58:33;;;;;;;31.57;19.70;;;11.90;99.90;;;;;;5055598;28;20045;-71
2022/10/22 07:01:10;;;;;;;34.90;20.40;;;12.00;99.90;;;;;;5055440;28;20041;-72
2022/10/22 07:03:37;;;;;;;32.22;18.80;;;11.90;99.90;;;;;;5038210;28;20048;-70
2022/10/22 07:06:06;;;;;;;37.03;19.13;;;12.00;99.90;;;;;;5055439;28;20065;-71
2022/10/22 07:08:33;;;;;;;30.92;18.80;;;12.00;99.90;;;;;;5037816;28;20186;-72
2022/10/22 07:11:29;;;;;;;38.38;19.45;;;12.10;99.90;;;;;;5055876;28;20053;-71
2022/10/22 07:13:56;;;;;;;34.78;18.75;;;12.20;99.90;;;;;;5053265;28;20065;-71
2022/10/22 07:16:23;;;;;;;31.42;19.38;;;12.30;99.90;;;;;;5004163;28;20389;-71
2022/10/22 07:18:49;;;;;;;32.55;18.35;;;12.30;99.90;;;;;;5038083;28;20351;-71
2022/10/22 07:21:17;;;;;;;26.75;15.68;;;12.40;99.90;;;;;;5037690;28;20049;-71
2022/10/22 07:23:42;;;;;;;29.35;18.40;;;12.40;99.90;;;;;;5054938;28;20095;-71
2022/10/22 07:26:10;;;;;;;26.50;15.07;;;12.40;99.90;;;;;;5054831;28;20045;-72
2022/10/22 07:28:38;;;;;;;23.95;15.35;;;12.40;99.90;;;;;;5055392;28;20361;-72
2022/10/22 07:31:04;;;;;;;38.55;16.27;;;12.50;99.90;;;;;;5038024;28;20053;-72
2022/10/22 07:33:30;;;;;;;31.85;15.13;;;12.50;99.90;;;;;;5054971;28;20044;-71
2022/10/22 07:36:00;;;;;;;29.42;15.07;;;12.60;99.90;;;;;;5054765;28;20037;-70
2022/10/22 07:38:26;;;;;;;27.00;15.23;;;12.60;99.90;;;;;;5054962;28;20347;-71
2022/10/22 07:40:52;;;;;;;26.77;15.85;;;12.60;99.90;;;;;;5054847;28;20589;-71
2022/10/22 07:43:18;;;;;;;36.90;16.38;;;12.70;99.90;;;;;;5054833;28;20084;-72
2022/10/22 07:45:44;;;;;;;33.03;15.70;;;12.70;99.90;;;;;;5054818;28;20445;-72
2022/10/22 07:48:10;;;;;;;21.20;13.50;;;12.80;99.90;;;;;;5055041;28;20396;-72
2022/10/22 07:50:35;;;;;;;26.23;14.02;;;12.80;99.90;;;;;;5054644;28;20124;-71
2022/10/22 07:53:01;;;;;;;20.38;12.38;;;12.90;99.90;;;;;;5054674;28;20084;-72
2022/10/22 07:55:27;;;;;;;21.38;13.50;;;12.90;99.90;;;;;;5054793;28;20051;-70
2022/10/22 07:57:52;;;;;;;25.50;13.13;;;13.00;99.90;;;;;;5054493;28;20085;-71
2022/10/22 08:00:18;;;;;;;24.27;13.10;;;13.00;99.90;;;;;;5037602;28;20045;-71
2022/10/22 08:02:44;;;;;;;28.77;12.65;;;13.10;99.90;;;;;;5054508;28;20044;-71
2022/10/22 08:05:12;;;;;;;24.50;11.65;;;13.20;99.90;;;;;;5054056;28;20052;-71
2022/10/22 08:07:37;;;;;;;17.45;10.30;;;13.20;99.90;;;;;;5054473;28;20045;-71
2022/10/22 08:10:03;;;;;;;27.05;12.18;;;13.20;99.90;;;;;;5020598;28;20110;-70
2022/10/22 08:12:29;;;;;;;21.55;11.07;;;13.20;99.90;;;;;;5054494;28;20433;-71
2022/10/22 08:14:54;;;;;;;28.35;10.35;;;13.20;99.90;;;;;;5054401;28;20112;-71
2022/10/22 08:17:20;;;;;;;29.50;11.40;;;13.30;99.90;;;;;;5055013;28;20049;-72
2022/10/22 08:19:46;;;;;;;26.40;11.38;;;13.30;99.90;;;;;;5037365;28;20339;-71
2022/10/22 08:22:11;;;;;;;22.63;11.10;;;13.30;99.90;;;;;;5054458;28;20090;-72
2022/10/22 08:24:37;;;;;;;33.85;10.05;;;13.40;99.90;;;;;;5054562;28;20045;-71
2022/10/22 08:27:02;;;;;;;14.13;8.98;;;13.40;99.90;;;;;;5037045;28;20049;-70
2022/10/22 08:29:28;;;;;;;16.77;8.98;;;13.40;99.90;;;;;;5054699;28;20056;-70
2022/10/22 08:31:53;;;;;;;23.75;9.52;;;13.40;99.90;;;;;;5054419;28;20037;-72
2022/10/22 08:34:19;;;;;;;19.27;9.18;;;13.40;99.90;;;;;;5054665;28;20075;-72
2022/10/22 08:36:45;;;;;;;18.73;9.25;;;13.70;99.90;;;;;;5054212;28;20051;-71
2022/10/22 08:39:11;;;;;;;24.55;8.30;;;13.60;99.90;;;;;;5054297;28;20094;-72
2022/10/22 08:42:20;;;;;;;23.30;9.07;;;13.70;99.90;;;;;;5054175;28;20494;-71
2022/10/22 08:45:11;;;;;;;20.40;8.48;;;13.70;99.90;;;;;;5054247;28;20107;-71
2022/10/22 08:47:36;;;;;;;24.60;7.93;;;13.80;99.90;;;;;;5036678;28;20045;-71
2022/10/22 08:50:03;;;;;;;15.65;7.35;;;13.80;99.90;;;;;;5053952;28;20049;-72
2022/10/22 08:52:31;;;;;;;24.55;7.88;;;13.80;99.90;;;;;;5054186;28;20363;-71
2022/10/22 08:54:58;;;;;;;18.08;8.15;;;13.90;99.90;;;;;;5054737;28;20111;-71
2022/10/22 08:57:44;;;;;;;15.95;7.47;;;13.90;99.90;;;;;;5054625;28;20130;-71
2022/10/22 09:00:16;;;;;;;17.20;7.65;;;14.00;99.90;;;;;;5054041;28;20045;-71
2022/10/22 09:03:29;;;;;;;21.27;7.35;;;14.10;99.90;;;;;;5053841;28;20053;-71
2022/10/22 09:06:09;;;;;;;17.10;7.40;;;14.20;99.90;;;;;;5036286;28;20080;-71
2022/10/22 09:08:37;;;;;;;16.25;6.45;;;14.20;99.90;;;;;;5053883;28;20061;-71
2022/10/22 09:11:12;;;;;;;17.33;7.30;;;14.20;99.90;;;;;;5054242;28;20433;-72
2022/10/22 09:13:40;;;;;;;13.48;6.13;;;14.30;99.90;;;;;;5053828;28;20049;-71
2022/10/22 09:16:37;;;;;;;17.60;5.97;;;14.30;99.90;;;;;;5021469;28;20446;-72
2022/10/22 09:19:20;;;;;;;20.45;6.18;;;14.40;99.90;;;;;;5050989;28;20122;-71
2022/10/22 09:22:15;;;;;;;17.05;6.35;;;14.40;99.90;;;;;;5057479;28;20076;-71
2022/10/22 09:24:46;;;;;;;16.27;6.43;;;14.50;99.90;;;;;;5057955;28;20048;-71
2022/10/22 09:27:19;;;;;;;17.40;6.40;;;14.50;99.90;;;;;;5039924;28;20045;-71
2022/10/22 09:29:46;;;;;;;19.65;6.50;;;14.60;99.90;;;;;;5057155;28;20476;-71
2022/10/22 09:32:13;;;;;;;15.25;6.28;;;14.70;99.90;;;;;;5057020;28;20497;-72
2022/10/22 09:34:39;;;;;;;14.93;5.47;;;14.90;99.90;;;;;;5040085;28;20056;-72
2022/10/22 09:37:08;;;;;;;16.42;5.35;;;14.80;99.90;;;;;;5057097;28;20037;-72
2022/10/22 09:39:37;;;;;;;16.33;5.30;;;14.90;99.90;;;;;;5057127;28;20045;-71
2022/10/22 09:42:04;;;;;;;19.45;5.25;;;14.90;99.90;;;;;;5057059;28;20044;-72
2022/10/22 09:44:33;;;;;;;21.60;5.78;;;15.00;99.90;;;;;;5039759;28;20053;-71
2022/10/22 09:46:58;;;;;;;18.20;5.78;;;15.10;99.90;;;;;;5048956;28;20045;-72
2022/10/22 09:49:28;;;;;;;22.73;5.15;;;15.30;99.90;;;;;;5056757;28;20083;-71
2022/10/22 09:51:58;;;;;;;16.77;5.03;;;15.30;99.90;;;;;;5056915;28;20053;-71
2022/10/22 09:54:32;;;;;;;16.00;4.93;;;15.50;99.90;;;;;;5039065;28;20044;-71
2022/10/22 09:57:04;;;;;;;16.38;4.85;;;15.50;99.90;;;;;;5056533;28;20041;-72
2022/10/22 09:59:32;;;;;;;25.10;4.80;;;15.50;99.90;;;;;;5057069;28;20068;-72
2022/10/22 10:02:10;;;;;;;14.05;4.93;;;15.70;99.90;;;;;;5056863;28;20053;-72
2022/10/22 10:04:41;;;;;;;15.57;5.00;;;15.70;99.90;;;;;;5056637;28;20102;-71
2022/10/22 10:07:36;;;;;;;19.55;4.93;;;15.80;99.90;;;;;;5057054;28;20079;-70
2022/10/22 10:10:25;;;;;;;14.65;4.75;;;15.70;99.90;;;;;;5021424;28;20136;-72
2022/10/22 10:13:00;;;;;;;14.07;4.47;;;15.70;99.90;;;;;;5041084;28;20049;-72
2022/10/22 10:15:38;;;;;;;14.63;4.82;;;15.70;99.90;;;;;;5056291;28;20041;-71
2022/10/22 10:18:25;;;;;;;19.65;5.25;;;15.60;99.90;;;;;;5056367;28;20045;-71
2022/10/22 10:20:58;;;;;;;19.35;5.50;;;15.60;99.90;;;;;;5056389;28;20037;-71
2022/10/22 10:23:28;;;;;;;17.50;6.03;;;15.50;99.90;;;;;;5056229;28;20476;-71
2022/10/22 10:25:57;;;;;;;12.60;5.20;;;15.50;99.90;;;;;;5055990;28;20522;-72
2022/10/22 10:28:43;;;;;;;17.60;6.03;;;15.50;99.90;;;;;;5055881;28;20044;-72
2022/10/22 10:31:18;;;;;;;13.68;5.95;;;15.60;99.90;;;;;;5038703;28;20041;-72
2022/10/22 10:34:01;;;;;;;17.60;6.00;;;15.60;99.90;;;;;;5056085;28;20049;-72
2022/10/22 10:36:32;;;;;;;17.87;6.30;;;15.60;99.90;;;;;;5056028;28;20071;-71
2022/10/22 10:39:07;;;;;;;19.83;6.15;;;15.70;99.90;;;;;;5038922;28;20049;-72
2022/10/22 10:41:51;;;;;;;17.40;6.28;;;15.70;99.90;;;;;;5055962;28;20088;-72
2022/10/22 10:44:41;;;;;;;27.77;7.53;;;15.80;99.90;;;;;;5056456;28;20119;-72
2022/10/22 10:47:26;;;;;;;19.45;7.15;;;15.90;99.90;;;;;;5056323;28;20053;-72
2022/10/22 10:50:01;;;;;;;20.50;7.10;;;16.10;99.90;;;;;;5055958;28;20543;-72
2022/10/22 10:52:33;;;;;;;20.05;5.72;;;16.20;99.90;;;;;;5055807;28;20130;-72
2022/10/22 10:55:24;;;;;;;20.70;6.38;;;16.30;99.90;;;;;;5055685;28;20191;-72
2022/10/22 10:57:59;;;;;;;14.75;6.35;;;16.30;99.90;;;;;;5056321;28;20049;-71
2022/10/22 11:00:27;;;;;;;16.70;5.60;;;16.30;99.90;;;;;;5055828;28;20044;-71
2022/10/22 11:02:59;;;;;;;17.25;5.60;;;16.30;99.90;;;;;;5055685;28;20045;-72
2022/10/22 11:05:30;;;;;;;15.43;4.72;;;16.30;99.90;;;;;;5038234;28;20045;-71
2022/10/22 11:08:20;;;;;;;14.18;5.68;;;16.20;99.90;;;;;;5055268;28;20033;-72
2022/10/22 11:11:15;;;;;;;10.00;4.85;;;16.10;99.90;;;;;;5056058;28;20057;-71
2022/10/22 11:13:52;;;;;;;16.67;5.53;;;16.00;99.90;;;;;;5055331;28;20045;-71
2022/10/22 11:16:29;;;;;;;16.40;6.30;;;16.00;99.90;;;;;;5055948;28;20052;-71
2022/10/22 11:19:02;;;;;;;15.23;5.85;;;16.00;99.90;;;;;;5056004;28;20072;-72
2022/10/22 11:21:34;;;;;;;12.25;5.47;;;15.90;99.90;;;;;;5055114;28;20045;-72
2022/10/22 11:24:15;;;;;;;13.52;5.57;;;15.90;99.90;;;;;;5055274;28;20093;-71
2022/10/22 11:27:12;;;;;;;12.38;5.75;;;15.90;99.90;;;;;;5055260;28;20045;-71
2022/10/22 11:29:43;;;;;;;20.70;6.63;;;15.80;99.90;;;;;;5010900;28;20065;-72
2022/10/22 11:32:16;;;;;;;21.23;7.10;;;15.80;99.90;;;;;;5055183;28;20055;-72
2022/10/22 11:34:56;;;;;;;;;;;15.70;99.90;;;;;;5055956;28;20049;-71
2022/10/22 11:37:25;;;;;;;20.52;7.93;;;15.70;99.90;;;;;;5055086;28;19935;-72
2022/10/22 11:39:54;;;;;;;16.98;8.25;;;15.70;99.90;;;;;;5037438;28;20045;-72
2022/10/22 11:42:30;;;;;;;14.52;6.93;;;15.60;99.90;;;;;;5055003;28;20080;-71
2022/10/22 11:45:03;;;;;;;21.02;7.28;;;15.80;99.90;;;;;;5055017;28;20048;-73
2022/10/22 11:47:33;;;;;;;;;;;15.90;99.90;;;;;;5055802;28;20350;-70
2022/10/22 11:50:24;;;;;;;18.50;7.35;;;16.00;99.90;;;;;;5054626;28;19920;-71
2022/10/22 11:53:06;;;;;;;27.33;6.65;;;16.10;99.90;;;;;;5054955;28;20049;-72
2022/10/22 11:58:46;;;;;;;18.25;6.43;;;16.30;99.90;;;;;;5050932;28;20040;-71
2022/10/22 12:01:11;;;;;;;18.60;6.35;;;16.40;99.90;;;;;;5054961;28;20335;-72
2022/10/22 12:03:49;;;;;;;12.25;5.70;;;16.50;99.90;;;;;;5037090;28;20131;-71
2022/10/22 12:06:14;;;;;;;11.93;5.15;;;16.60;99.90;;;;;;5054370;28;20045;-71
2022/10/22 12:08:52;;;;;;;18.63;5.32;;;16.70;99.90;;;;;;5054832;28;20063;-71
2022/10/22 12:11:20;;;;;;;23.38;6.13;;;16.70;99.90;;;;;;5054912;28;20122;-72
2022/10/22 12:13:57;;;;;;;20.23;5.70;;;16.70;99.90;;;;;;5054273;28;20462;-71
2022/10/22 12:16:25;;;;;;;17.70;5.38;;;16.70;99.90;;;;;;5054624;28;20045;-71
2022/10/22 12:19:00;;;;;;;11.80;4.72;;;16.70;99.90;;;;;;5037555;28;20092;-71
2022/10/22 12:21:25;;;;;;;12.07;5.13;;;16.50;99.90;;;;;;5054635;28;20049;-72
2022/10/22 12:23:51;;;;;;;17.83;6.00;;;16.40;99.90;;;;;;5054781;28;20472;-71
2022/10/22 12:26:26;;;;;;;16.88;6.43;;;16.40;99.90;;;;;;5054674;28;20053;-71
2022/10/22 12:29:01;;;;;;;22.15;5.97;;;16.40;99.90;;;;;;5036680;28;20044;-71
2022/10/22 12:31:33;;;;;;;23.10;6.50;;;16.40;99.90;;;;;;5054745;28;20128;-72
2022/10/22 12:33:59;;;;;;;22.60;6.53;;;16.40;99.90;;;;;;5054488;28;20429;-71
2022/10/22 12:36:26;;;;;;;23.83;6.60;;;16.30;99.90;;;;;;5037852;28;20076;-72
2022/10/22 12:38:52;;;;;;;17.90;6.03;;;16.30;99.90;;;;;;5054250;28;20049;-71
2022/10/22 12:41:20;;;;;;;20.52;5.90;;;16.30;99.90;;;;;;5054941;28;20041;-72
2022/10/22 12:43:45;;;;;;;11.88;5.35;;;16.30;99.90;;;;;;5054333;28;20053;-71
2022/10/22 12:46:15;;;;;;;16.55;6.30;;;16.30;99.90;;;;;;5054311;28;20052;-70
2022/10/22 12:48:43;;;;;;;11.68;4.93;;;16.30;99.90;;;;;;5054141;28;20090;-72